createdAt,value
2022-11-30T15:53:28.110Z,5.13
2022-11-30T15:55:57.448Z,6.13
2022-11-30T15:58:28.670Z,5.82
2022-11-30T16:01:06.079Z,6.05
2022-11-30T16:03:35.808Z,5.13
2022-11-30T16:06:05.860Z,5.00
2022-11-30T16:08:35.199Z,5.00
2022-11-30T16:11:08.038Z,6.22
2022-11-30T16:13:36.245Z,5.15
2022-11-30T16:16:11.827Z,5.25
2022-11-30T16:18:39.767Z,5.75
2022-11-30T16:21:07.800Z,5.72
2022-11-30T16:23:37.061Z,5.60
2022-11-30T16:26:07.937Z,5.40
2022-11-30T16:28:41.738Z,5.47
2022-11-30T16:31:17.192Z,5.75
2022-11-30T16:33:45.726Z,5.80
2022-11-30T16:36:16.993Z,6.90
2022-11-30T16:38:48.653Z,7.10
2022-11-30T16:41:19.149Z,6.57
2022-11-30T16:43:48.381Z,6.80
2022-11-30T16:46:18.477Z,6.30
2022-11-30T16:48:47.103Z,6.97
2022-11-30T16:51:20.459Z,6.90
2022-11-30T16:53:49.875Z,6.45
2022-11-30T16:56:17.914Z,5.95
2022-11-30T16:58:46.067Z,5.88
2022-11-30T17:01:19.099Z,5.35
2022-11-30T17:03:49.624Z,7.15
2022-11-30T17:06:20.278Z,5.80
2022-11-30T17:08:50.680Z,6.70
2022-11-30T17:11:22.291Z,7.57
2022-11-30T17:13:50.214Z,6.10
2022-11-30T17:16:18.162Z,6.70
2022-11-30T17:18:46.142Z,6.22
2022-11-30T17:21:20.232Z,5.80
2022-11-30T17:23:49.543Z,5.70
2022-11-30T17:26:17.374Z,5.80
2022-11-30T17:28:45.209Z,5.97
2022-11-30T17:31:13.757Z,5.57
2022-11-30T17:33:47.791Z,5.72
2022-11-30T17:36:17.068Z,6.43
2022-11-30T17:38:45.283Z,6.15
2022-11-30T17:41:19.172Z,5.95
2022-11-30T17:43:48.133Z,5.97
2022-11-30T17:46:19.203Z,5.20
2022-11-30T17:48:47.413Z,5.35
2022-11-30T17:51:15.283Z,6.13
2022-11-30T17:53:44.203Z,5.85
2022-11-30T17:56:16.122Z,4.57
2022-11-30T17:58:45.366Z,4.35
2022-11-30T18:01:17.444Z,4.57
2022-11-30T18:03:46.026Z,3.47
2022-11-30T18:06:14.195Z,3.13
2022-11-30T18:08:42.447Z,3.60
2022-11-30T18:11:11.278Z,3.05
2022-11-30T18:13:41.467Z,3.22
2022-11-30T18:16:11.679Z,2.92
2022-11-30T18:18:44.387Z,3.03
2022-11-30T18:21:16.539Z,3.38
2022-11-30T18:23:44.358Z,3.80
2022-11-30T18:26:13.884Z,3.70
2022-11-30T18:28:43.452Z,4.30
2022-11-30T18:31:11.874Z,3.78
2022-11-30T18:33:39.985Z,3.95
2022-11-30T18:36:08.072Z,4.30
2022-11-30T18:38:38.490Z,4.18
2022-11-30T18:41:07.393Z,4.10
2022-11-30T18:43:35.370Z,4.10
2022-11-30T18:46:05.844Z,4.68
2022-11-30T18:48:33.762Z,4.70
2022-11-30T18:51:09.169Z,4.68
2022-11-30T18:53:37.059Z,6.90
2022-11-30T18:56:13.038Z,5.05
2022-11-30T18:58:41.187Z,6.70
2022-11-30T19:01:13.389Z,5.70
2022-11-30T19:03:42.011Z,5.53
2022-11-30T19:06:11.749Z,5.53
2022-11-30T19:08:40.922Z,6.63
2022-11-30T19:11:10.514Z,5.85
2022-11-30T19:13:38.508Z,5.55
2022-11-30T19:16:08.189Z,9.88
2022-11-30T19:18:37.813Z,6.85
2022-11-30T19:21:09.249Z,5.90
2022-11-30T19:23:37.615Z,5.80
2022-11-30T19:26:06.667Z,5.65
2022-11-30T19:28:36.434Z,6.60
2022-11-30T19:31:08.459Z,6.65
2022-11-30T19:33:38.950Z,6.85
2022-11-30T19:36:11.108Z,5.65
2022-11-30T19:38:39.005Z,4.38
2022-11-30T19:41:07.611Z,5.45
2022-11-30T19:43:35.473Z,5.35
2022-11-30T19:46:07.600Z,4.80
2022-11-30T19:48:37.310Z,4.53
2022-11-30T19:51:06.779Z,5.28
2022-11-30T19:53:34.689Z,5.68
2022-11-30T19:56:06.173Z,5.55
2022-11-30T19:58:34.256Z,5.93
2022-11-30T20:01:02.535Z,5.97
2022-11-30T20:03:33.210Z,6.97
2022-11-30T20:06:02.686Z,6.60
2022-11-30T20:08:30.899Z,7.35
2022-11-30T20:10:58.670Z,7.25
2022-11-30T20:13:26.613Z,7.88
2022-11-30T20:15:54.669Z,7.82
2022-11-30T20:18:22.470Z,6.90
2022-11-30T20:20:50.284Z,7.57
2022-11-30T20:23:19.755Z,7.72
2022-11-30T20:25:47.696Z,6.95
2022-11-30T20:28:15.534Z,6.88
2022-11-30T20:30:43.801Z,7.10
2022-11-30T20:33:11.705Z,6.20
2022-11-30T20:35:39.511Z,6.75
2022-11-30T20:38:07.261Z,6.38
2022-11-30T20:40:39.737Z,7.15
2022-11-30T20:43:07.605Z,7.18
2022-11-30T20:45:35.406Z,6.97
2022-11-30T20:48:03.350Z,6.95
2022-11-30T20:50:31.314Z,6.07
2022-11-30T20:52:59.105Z,6.03
2022-11-30T20:55:27.141Z,6.40
2022-11-30T20:57:56.594Z,6.30
2022-11-30T21:00:24.996Z,4.70
2022-11-30T21:02:52.853Z,5.28
2022-11-30T21:05:20.656Z,4.43
2022-11-30T21:07:49.120Z,3.53
2022-11-30T21:10:17.265Z,3.20
2022-11-30T21:12:45.137Z,3.92
2022-11-30T21:15:14.218Z,3.95
2022-11-30T21:17:42.075Z,4.25
